Аэропорт: Нальчик. Нальчик

ICAO: URMN

METAR:
2024-04-22 22:00:00
URMN 222200Z 22003MPS 9999 FEW/// 14/09 Q1020 R24/////// NOSIG RMK QFE728
TAF:
2024-04-22 20:00:00
TAF URMN 222000Z 2221/2306 24003G08MPS 9999 BKN020